Erskine, Minnesota
Current Conditions -  °F | °C
As of 8:55 AM on Wednesday 22 Oct 2014 (Local Time) from KFSE Reporting Station
Clear Clear  
Wind Chill: 52°   Ceiling: Unl
Heat Index: 52°   Visibility: 10mi
Dew Point: 39°   Wind: 20mph
Humidity: 62%   Direction: 150°SSE
Pressure: 29.9"   Gusts: 28mph
Location:  47.67°N, 96.01°W
Report Text: KFSE 221355Z AUTO 15017G24KT 10SM CLR 11/04 A2990 RMK AO2
Loading
Personal Weather Stations






























Interactive Weather Map
Tropical Storm Tracking
New forecast layout! Learn more

10-Day Weather Forecast

Advertisements
Track Severe Weather on mobile